sensor_id;sensor_type;location;lat;lon;timestamp;P1;durP1;ratioP1;P2;durP2;ratioP2
73841;SDS011;62184;52.006;5.924;2023-04-24T00:00:47;10.43;;;6.10;;
73841;SDS011;62184;52.006;5.924;2023-04-24T00:03:16;10.70;;;6.20;;
73841;SDS011;62184;52.006;5.924;2023-04-24T00:05:42;10.93;;;5.70;;
73841;SDS011;62184;52.006;5.924;2023-04-24T00:08:08;10.27;;;6.30;;
73841;SDS011;62184;52.006;5.924;2023-04-24T00:10:35;11.52;;;6.80;;
73841;SDS011;62184;52.006;5.924;2023-04-24T00:13:01;12.25;;;6.82;;
73841;SDS011;62184;52.006;5.924;2023-04-24T00:15:28;13.60;;;7.28;;
73841;SDS011;62184;52.006;5.924;2023-04-24T00:17:54;11.60;;;6.80;;
73841;SDS011;62184;52.006;5.924;2023-04-24T00:20:23;10.88;;;6.80;;
73841;SDS011;62184;52.006;5.924;2023-04-24T00:22:50;11.20;;;6.85;;
73841;SDS011;62184;52.006;5.924;2023-04-24T00:25:16;10.43;;;6.40;;
73841;SDS011;62184;52.006;5.924;2023-04-24T00:27:42;10.82;;;6.38;;
73841;SDS011;62184;52.006;5.924;2023-04-24T00:30:09;9.70;;;5.63;;
73841;SDS011;62184;52.006;5.924;2023-04-24T00:32:36;9.65;;;5.35;;
73841;SDS011;62184;52.006;5.924;2023-04-24T00:35:03;8.27;;;5.05;;
73841;SDS011;62184;52.006;5.924;2023-04-24T00:37:34;8.73;;;4.70;;
73841;SDS011;62184;52.006;5.924;2023-04-24T00:40:00;7.05;;;4.07;;
73841;SDS011;62184;52.006;5.924;2023-04-24T00:42:27;6.50;;;3.97;;
73841;SDS011;62184;52.006;5.924;2023-04-24T00:44:53;6.30;;;3.70;;
73841;SDS011;62184;52.006;5.924;2023-04-24T00:47:20;6.43;;;3.75;;
73841;SDS011;62184;52.006;5.924;2023-04-24T00:49:46;7.28;;;3.80;;
73841;SDS011;62184;52.006;5.924;2023-04-24T00:52:13;6.45;;;3.75;;
73841;SDS011;62184;52.006;5.924;2023-04-24T00:54:42;7.20;;;4.10;;
73841;SDS011;62184;52.006;5.924;2023-04-24T00:57:08;6.93;;;4.10;;
73841;SDS011;62184;52.006;5.924;2023-04-24T00:59:35;8.37;;;4.50;;
73841;SDS011;62184;52.006;5.924;2023-04-24T01:02:02;7.93;;;4.38;;
73841;SDS011;62184;52.006;5.924;2023-04-24T01:04:28;10.02;;;4.90;;
73841;SDS011;62184;52.006;5.924;2023-04-24T01:06:55;9.37;;;5.53;;
73841;SDS011;62184;52.006;5.924;2023-04-24T01:09:23;9.88;;;5.53;;
73841;SDS011;62184;52.006;5.924;2023-04-24T01:11:52;10.30;;;6.18;;
73841;SDS011;62184;52.006;5.924;2023-04-24T01:14:19;11.77;;;6.53;;
73841;SDS011;62184;52.006;5.924;2023-04-24T01:16:46;12.48;;;6.82;;
73841;SDS011;62184;52.006;5.924;2023-04-24T01:19:12;13.05;;;7.20;;
73841;SDS011;62184;52.006;5.924;2023-04-24T01:21:44;15.15;;;8.50;;
73841;SDS011;62184;52.006;5.924;2023-04-24T01:24:18;16.30;;;9.20;;
73841;SDS011;62184;52.006;5.924;2023-04-24T01:26:45;18.73;;;10.40;;
73841;SDS011;62184;52.006;5.924;2023-04-24T01:29:12;19.40;;;10.85;;
73841;SDS011;62184;52.006;5.924;2023-04-24T01:31:38;21.42;;;11.60;;
73841;SDS011;62184;52.006;5.924;2023-04-24T01:34:05;22.30;;;12.00;;
73841;SDS011;62184;52.006;5.924;2023-04-24T01:36:32;22.07;;;11.70;;
73841;SDS011;62184;52.006;5.924;2023-04-24T01:39:00;22.83;;;12.38;;
73841;SDS011;62184;52.006;5.924;2023-04-24T01:41:30;22.58;;;11.40;;
73841;SDS011;62184;52.006;5.924;2023-04-24T01:43:57;18.23;;;9.23;;
73841;SDS011;62184;52.006;5.924;2023-04-24T01:46:24;15.82;;;8.68;;
73841;SDS011;62184;52.006;5.924;2023-04-24T01:48:51;17.92;;;8.48;;
73841;SDS011;62184;52.006;5.924;2023-04-24T01:51:18;15.23;;;7.50;;
73841;SDS011;62184;52.006;5.924;2023-04-24T01:53:44;13.15;;;6.47;;
73841;SDS011;62184;52.006;5.924;2023-04-24T01:56:11;13.53;;;6.40;;
73841;SDS011;62184;52.006;5.924;2023-04-24T01:58:40;14.00;;;6.40;;
73841;SDS011;62184;52.006;5.924;2023-04-24T02:01:07;14.63;;;6.43;;
73841;SDS011;62184;52.006;5.924;2023-04-24T02:03:33;13.63;;;6.40;;
73841;SDS011;62184;52.006;5.924;2023-04-24T02:06:00;14.77;;;6.50;;
73841;SDS011;62184;52.006;5.924;2023-04-24T02:08:26;15.73;;;7.28;;
73841;SDS011;62184;52.006;5.924;2023-04-24T02:10:53;16.80;;;7.50;;
73841;SDS011;62184;52.006;5.924;2023-04-24T02:13:19;18.90;;;7.60;;
73841;SDS011;62184;52.006;5.924;2023-04-24T02:15:48;18.30;;;7.75;;
73841;SDS011;62184;52.006;5.924;2023-04-24T02:18:14;20.33;;;8.63;;
73841;SDS011;62184;52.006;5.924;2023-04-24T02:20:41;23.02;;;9.70;;
73841;SDS011;62184;52.006;5.924;2023-04-24T02:23:07;25.60;;;10.30;;
73841;SDS011;62184;52.006;5.924;2023-04-24T02:25:34;27.73;;;11.13;;
73841;SDS011;62184;52.006;5.924;2023-04-24T02:28:00;31.23;;;11.43;;
73841;SDS011;62184;52.006;5.924;2023-04-24T02:30:26;30.63;;;11.60;;
73841;SDS011;62184;52.006;5.924;2023-04-24T02:32:55;30.33;;;11.80;;
73841;SDS011;62184;52.006;5.924;2023-04-24T02:35:22;34.40;;;11.85;;
73841;SDS011;62184;52.006;5.924;2023-04-24T02:37:48;33.40;;;11.95;;
73841;SDS011;62184;52.006;5.924;2023-04-24T02:40:15;46.70;;;17.20;;
73841;SDS011;62184;52.006;5.924;2023-04-24T02:42:41;52.63;;;19.20;;
73841;SDS011;62184;52.006;5.924;2023-04-24T02:45:08;50.70;;;19.63;;
73841;SDS011;62184;52.006;5.924;2023-04-24T02:47:35;49.72;;;19.02;;
73841;SDS011;62184;52.006;5.924;2023-04-24T02:50:05;50.60;;;19.30;;
73841;SDS011;62184;52.006;5.924;2023-04-24T02:52:33;52.83;;;20.03;;
73841;SDS011;62184;52.006;5.924;2023-04-24T02:54:59;47.80;;;18.97;;
73841;SDS011;62184;52.006;5.924;2023-04-24T02:57:26;49.93;;;19.30;;
73841;SDS011;62184;52.006;5.924;2023-04-24T02:59:52;51.37;;;19.50;;
73841;SDS011;62184;52.006;5.924;2023-04-24T03:02:18;49.50;;;19.30;;
73841;SDS011;62184;52.006;5.924;2023-04-24T03:04:45;48.23;;;18.83;;
73841;SDS011;62184;52.006;5.924;2023-04-24T03:07:14;48.97;;;18.90;;
73841;SDS011;62184;52.006;5.924;2023-04-24T03:09:40;49.03;;;18.45;;
73841;SDS011;62184;52.006;5.924;2023-04-24T03:12:07;47.63;;;18.45;;
73841;SDS011;62184;52.006;5.924;2023-04-24T03:14:33;46.50;;;16.70;;
73841;SDS011;62184;52.006;5.924;2023-04-24T03:16:59;28.75;;;12.30;;
73841;SDS011;62184;52.006;5.924;2023-04-24T03:19:26;35.05;;;14.23;;
73841;SDS011;62184;52.006;5.924;2023-04-24T03:21:53;41.67;;;15.20;;
73841;SDS011;62184;52.006;5.924;2023-04-24T03:24:22;46.05;;;17.13;;
73841;SDS011;62184;52.006;5.924;2023-04-24T03:26:48;49.30;;;16.97;;
73841;SDS011;62184;52.006;5.924;2023-04-24T03:29:15;49.40;;;17.90;;
73841;SDS011;62184;52.006;5.924;2023-04-24T03:31:41;49.43;;;17.67;;
73841;SDS011;62184;52.006;5.924;2023-04-24T03:34:07;52.33;;;18.07;;
73841;SDS011;62184;52.006;5.924;2023-04-24T03:36:34;49.27;;;17.50;;
73841;SDS011;62184;52.006;5.924;2023-04-24T03:39:00;47.40;;;18.80;;
73841;SDS011;62184;52.006;5.924;2023-04-24T03:41:29;51.60;;;18.23;;
73841;SDS011;62184;52.006;5.924;2023-04-24T03:43:55;49.60;;;18.98;;
73841;SDS011;62184;52.006;5.924;2023-04-24T03:46:22;48.22;;;19.73;;
73841;SDS011;62184;52.006;5.924;2023-04-24T03:48:48;55.30;;;22.73;;
73841;SDS011;62184;52.006;5.924;2023-04-24T03:51:15;56.25;;;22.50;;
73841;SDS011;62184;52.006;5.924;2023-04-24T03:53:41;60.33;;;22.88;;
73841;SDS011;62184;52.006;5.924;2023-04-24T03:56:07;58.67;;;23.02;;
73841;SDS011;62184;52.006;5.924;2023-04-24T03:58:37;58.50;;;23.80;;
73841;SDS011;62184;52.006;5.924;2023-04-24T04:01:03;64.13;;;25.27;;
73841;SDS011;62184;52.006;5.924;2023-04-24T04:03:30;64.07;;;26.55;;
73841;SDS011;62184;52.006;5.924;2023-04-24T04:05:56;67.72;;;26.80;;
73841;SDS011;62184;52.006;5.924;2023-04-24T04:08:23;71.97;;;27.90;;
73841;SDS011;62184;52.006;5.924;2023-04-24T04:10:49;70.68;;;27.45;;
73841;SDS011;62184;52.006;5.924;2023-04-24T04:13:16;66.88;;;28.02;;
73841;SDS011;62184;52.006;5.924;2023-04-24T04:15:45;70.82;;;28.30;;
73841;SDS011;62184;52.006;5.924;2023-04-24T04:18:11;68.05;;;26.98;;
73841;SDS011;62184;52.006;5.924;2023-04-24T04:20:38;73.68;;;28.38;;
73841;SDS011;62184;52.006;5.924;2023-04-24T04:23:04;70.15;;;27.50;;
73841;SDS011;62184;52.006;5.924;2023-04-24T04:25:31;73.27;;;27.63;;
73841;SDS011;62184;52.006;5.924;2023-04-24T04:27:57;68.93;;;27.37;;
73841;SDS011;62184;52.006;5.924;2023-04-24T04:30:23;62.50;;;26.80;;
73841;SDS011;62184;52.006;5.924;2023-04-24T04:32:52;63.63;;;26.85;;
73841;SDS011;62184;52.006;5.924;2023-04-24T04:35:19;57.35;;;25.10;;
73841;SDS011;62184;52.006;5.924;2023-04-24T04:37:45;60.00;;;26.03;;
73841;SDS011;62184;52.006;5.924;2023-04-24T04:40:12;60.70;;;25.17;;
73841;SDS011;62184;52.006;5.924;2023-04-24T04:42:38;66.57;;;27.10;;
73841;SDS011;62184;52.006;5.924;2023-04-24T04:45:05;62.13;;;26.07;;
73841;SDS011;62184;52.006;5.924;2023-04-24T04:47:33;60.00;;;25.35;;
73841;SDS011;62184;52.006;5.924;2023-04-24T04:50:02;62.30;;;25.70;;
73841;SDS011;62184;52.006;5.924;2023-04-24T04:52:30;61.50;;;24.92;;
73841;SDS011;62184;52.006;5.924;2023-04-24T04:54:57;60.85;;;24.92;;
73841;SDS011;62184;52.006;5.924;2023-04-24T04:57:23;52.88;;;23.95;;
73841;SDS011;62184;52.006;5.924;2023-04-24T04:59:50;59.15;;;24.88;;
73841;SDS011;62184;52.006;5.924;2023-04-24T05:02:17;53.97;;;23.60;;
73841;SDS011;62184;52.006;5.924;2023-04-24T05:04:43;56.13;;;24.20;;
73841;SDS011;62184;52.006;5.924;2023-04-24T05:07:12;56.90;;;23.48;;
73841;SDS011;62184;52.006;5.924;2023-04-24T05:09:39;52.27;;;22.87;;
73841;SDS011;62184;52.006;5.924;2023-04-24T05:12:05;55.63;;;23.40;;
73841;SDS011;62184;52.006;5.924;2023-04-24T05:14:31;54.20;;;22.00;;
73841;SDS011;62184;52.006;5.924;2023-04-24T05:16:58;58.17;;;22.43;;
73841;SDS011;62184;52.006;5.924;2023-04-24T05:19:24;54.13;;;21.80;;
73841;SDS011;62184;52.006;5.924;2023-04-24T05:21:51;57.92;;;22.95;;
73841;SDS011;62184;52.006;5.924;2023-04-24T05:24:20;52.80;;;22.60;;
73841;SDS011;62184;52.006;5.924;2023-04-24T05:26:46;52.58;;;20.95;;
73841;SDS011;62184;52.006;5.924;2023-04-24T05:29:13;43.30;;;18.70;;
73841;SDS011;62184;52.006;5.924;2023-04-24T05:31:39;44.08;;;20.00;;
73841;SDS011;62184;52.006;5.924;2023-04-24T05:34:05;48.03;;;19.38;;
73841;SDS011;62184;52.006;5.924;2023-04-24T05:36:32;36.72;;;16.48;;
73841;SDS011;62184;52.006;5.924;2023-04-24T05:38:58;45.45;;;18.70;;
73841;SDS011;62184;52.006;5.924;2023-04-24T05:41:27;52.45;;;20.88;;
73841;SDS011;62184;52.006;5.924;2023-04-24T05:43:53;45.83;;;19.05;;
73841;SDS011;62184;52.006;5.924;2023-04-24T05:46:20;48.92;;;18.80;;
73841;SDS011;62184;52.006;5.924;2023-04-24T05:48:46;45.23;;;18.63;;
73841;SDS011;62184;52.006;5.924;2023-04-24T05:51:13;40.55;;;17.67;;
73841;SDS011;62184;52.006;5.924;2023-04-24T05:53:39;42.85;;;17.13;;
73841;SDS011;62184;52.006;5.924;2023-04-24T05:56:05;35.88;;;15.95;;
73841;SDS011;62184;52.006;5.924;2023-04-24T05:58:34;36.88;;;16.25;;
73841;SDS011;62184;52.006;5.924;2023-04-24T06:01:01;37.60;;;15.90;;
73841;SDS011;62184;52.006;5.924;2023-04-24T06:03:27;34.60;;;15.40;;
73841;SDS011;62184;52.006;5.924;2023-04-24T06:05:54;39.53;;;15.13;;
73841;SDS011;62184;52.006;5.924;2023-04-24T06:08:20;33.58;;;14.00;;
73841;SDS011;62184;52.006;5.924;2023-04-24T06:10:46;30.00;;;12.88;;
73841;SDS011;62184;52.006;5.924;2023-04-24T06:13:13;35.47;;;13.37;;
73841;SDS011;62184;52.006;5.924;2023-04-24T06:15:42;29.87;;;12.07;;
73841;SDS011;62184;52.006;5.924;2023-04-24T06:18:09;32.58;;;13.02;;
73841;SDS011;62184;52.006;5.924;2023-04-24T06:20:36;32.10;;;12.98;;
73841;SDS011;62184;52.006;5.924;2023-04-24T06:23:02;28.52;;;11.57;;
73841;SDS011;62184;52.006;5.924;2023-04-24T06:25:28;27.88;;;11.98;;
73841;SDS011;62184;52.006;5.924;2023-04-24T06:27:55;27.92;;;11.85;;
73841;SDS011;62184;52.006;5.924;2023-04-24T06:30:22;30.33;;;11.67;;
73841;SDS011;62184;52.006;5.924;2023-04-24T06:32:52;22.55;;;10.57;;
73841;SDS011;62184;52.006;5.924;2023-04-24T06:35:18;19.27;;;10.30;;
73841;SDS011;62184;52.006;5.924;2023-04-24T06:37:45;22.90;;;10.27;;
73841;SDS011;62184;52.006;5.924;2023-04-24T06:40:12;20.67;;;9.50;;
73841;SDS011;62184;52.006;5.924;2023-04-24T06:42:38;19.92;;;9.30;;
73841;SDS011;62184;52.006;5.924;2023-04-24T06:45:05;19.48;;;8.82;;
73841;SDS011;62184;52.006;5.924;2023-04-24T06:47:33;17.10;;;8.20;;
73841;SDS011;62184;52.006;5.924;2023-04-24T06:50:02;16.83;;;7.90;;
73841;SDS011;62184;52.006;5.924;2023-04-24T06:52:29;17.50;;;7.90;;
73841;SDS011;62184;52.006;5.924;2023-04-24T06:54:59;15.30;;;7.07;;
73841;SDS011;62184;52.006;5.924;2023-04-24T06:57:26;13.63;;;6.43;;
73841;SDS011;62184;52.006;5.924;2023-04-24T06:59:52;13.85;;;6.68;;
73841;SDS011;62184;52.006;5.924;2023-04-24T07:02:19;13.95;;;6.57;;
73841;SDS011;62184;52.006;5.924;2023-04-24T07:04:45;13.05;;;5.70;;
73841;SDS011;62184;52.006;5.924;2023-04-24T07:07:14;10.70;;;5.60;;
73841;SDS011;62184;52.006;5.924;2023-04-24T07:09:41;10.98;;;5.18;;
73841;SDS011;62184;52.006;5.924;2023-04-24T07:12:08;11.65;;;5.20;;
73841;SDS011;62184;52.006;5.924;2023-04-24T07:14:34;11.55;;;5.40;;
73841;SDS011;62184;52.006;5.924;2023-04-24T07:17:02;11.90;;;4.85;;
73841;SDS011;62184;52.006;5.924;2023-04-24T07:19:28;10.23;;;4.87;;
73841;SDS011;62184;52.006;5.924;2023-04-24T07:21:55;11.20;;;5.00;;
73841;SDS011;62184;52.006;5.924;2023-04-24T07:24:24;9.60;;;4.47;;
73841;SDS011;62184;52.006;5.924;2023-04-24T07:26:50;9.57;;;4.28;;
73841;SDS011;62184;52.006;5.924;2023-04-24T07:29:18;9.50;;;4.50;;
73841;SDS011;62184;52.006;5.924;2023-04-24T07:31:44;10.07;;;4.50;;
73841;SDS011;62184;52.006;5.924;2023-04-24T07:34:11;10.70;;;4.50;;
73841;SDS011;62184;52.006;5.924;2023-04-24T07:36:37;10.02;;;4.20;;
73841;SDS011;62184;52.006;5.924;2023-04-24T07:39:04;8.48;;;3.65;;
73841;SDS011;62184;52.006;5.924;2023-04-24T07:41:33;10.10;;;4.20;;
73841;SDS011;62184;52.006;5.924;2023-04-24T07:44:00;10.95;;;4.38;;
73841;SDS011;62184;52.006;5.924;2023-04-24T07:46:26;8.63;;;4.28;;
73841;SDS011;62184;52.006;5.924;2023-04-24T07:48:52;9.27;;;4.20;;
73841;SDS011;62184;52.006;5.924;2023-04-24T07:51:19;10.07;;;4.63;;
73841;SDS011;62184;52.006;5.924;2023-04-24T07:53:45;9.85;;;4.95;;
73841;SDS011;62184;52.006;5.924;2023-04-24T07:56:12;11.40;;;5.97;;
73841;SDS011;62184;52.006;5.924;2023-04-24T07:58:41;14.70;;;6.35;;
73841;SDS011;62184;52.006;5.924;2023-04-24T08:01:07;15.80;;;7.55;;
73841;SDS011;62184;52.006;5.924;2023-04-24T08:03:33;16.02;;;8.05;;
73841;SDS011;62184;52.006;5.924;2023-04-24T08:06:00;19.33;;;8.82;;
73841;SDS011;62184;52.006;5.924;2023-04-24T08:08:26;19.17;;;9.80;;
73841;SDS011;62184;52.006;5.924;2023-04-24T08:10:53;20.00;;;10.00;;
73841;SDS011;62184;52.006;5.924;2023-04-24T08:13:19;20.20;;;9.97;;
73841;SDS011;62184;52.006;5.924;2023-04-24T08:15:48;19.15;;;10.20;;
73841;SDS011;62184;52.006;5.924;2023-04-24T08:18:15;20.13;;;10.18;;
73841;SDS011;62184;52.006;5.924;2023-04-24T08:20:41;21.17;;;10.13;;
73841;SDS011;62184;52.006;5.924;2023-04-24T08:23:08;20.13;;;9.87;;
73841;SDS011;62184;52.006;5.924;2023-04-24T08:25:34;20.23;;;9.53;;
73841;SDS011;62184;52.006;5.924;2023-04-24T08:28:01;18.20;;;8.95;;
73841;SDS011;62184;52.006;5.924;2023-04-24T08:30:28;19.40;;;9.63;;
73841;SDS011;62184;52.006;5.924;2023-04-24T08:32:57;17.80;;;9.45;;
73841;SDS011;62184;52.006;5.924;2023-04-24T08:35:24;21.93;;;9.80;;
73841;SDS011;62184;52.006;5.924;2023-04-24T08:37:51;18.17;;;9.68;;
73841;SDS011;62184;52.006;5.924;2023-04-24T08:40:18;21.23;;;10.35;;
73841;SDS011;62184;52.006;5.924;2023-04-24T08:42:53;21.08;;;10.02;;
73841;SDS011;62184;52.006;5.924;2023-04-24T08:45:21;22.73;;;10.80;;
73841;SDS011;62184;52.006;5.924;2023-04-24T08:47:48;19.08;;;10.10;;
73841;SDS011;62184;52.006;5.924;2023-04-24T08:50:20;21.85;;;10.10;;
73841;SDS011;62184;52.006;5.924;2023-04-24T08:52:48;20.92;;;10.80;;
73841;SDS011;62184;52.006;5.924;2023-04-24T08:55:16;22.38;;;10.75;;
73841;SDS011;62184;52.006;5.924;2023-04-24T08:57:43;25.35;;;10.93;;
73841;SDS011;62184;52.006;5.924;2023-04-24T09:00:11;22.40;;;10.73;;
73841;SDS011;62184;52.006;5.924;2023-04-24T09:02:41;21.65;;;10.02;;
73841;SDS011;62184;52.006;5.924;2023-04-24T09:05:08;23.20;;;10.63;;
73841;SDS011;62184;52.006;5.924;2023-04-24T09:07:38;19.90;;;9.40;;
73841;SDS011;62184;52.006;5.924;2023-04-24T09:10:10;19.92;;;8.60;;
73841;SDS011;62184;52.006;5.924;2023-04-24T09:12:38;17.17;;;7.50;;
73841;SDS011;62184;52.006;5.924;2023-04-24T09:15:05;12.88;;;6.10;;
73841;SDS011;62184;52.006;5.924;2023-04-24T09:17:34;11.68;;;5.65;;
73841;SDS011;62184;52.006;5.924;2023-04-24T09:20:00;13.23;;;6.07;;
73841;SDS011;62184;52.006;5.924;2023-04-24T09:22:28;17.20;;;6.50;;
73841;SDS011;62184;52.006;5.924;2023-04-24T09:25:02;15.48;;;6.90;;
73841;SDS011;62184;52.006;5.924;2023-04-24T09:27:30;16.63;;;6.70;;
73841;SDS011;62184;52.006;5.924;2023-04-24T09:29:57;17.23;;;6.13;;
73841;SDS011;62184;52.006;5.924;2023-04-24T09:32:25;15.18;;;6.45;;
73841;SDS011;62184;52.006;5.924;2023-04-24T09:35:04;16.80;;;6.63;;
73841;SDS011;62184;52.006;5.924;2023-04-24T09:37:37;18.30;;;6.70;;
73841;SDS011;62184;52.006;5.924;2023-04-24T09:40:15;14.93;;;5.60;;
73841;SDS011;62184;52.006;5.924;2023-04-24T09:42:43;17.60;;;5.78;;
73841;SDS011;62184;52.006;5.924;2023-04-24T09:45:11;14.33;;;4.90;;
73841;SDS011;62184;52.006;5.924;2023-04-24T09:47:38;13.52;;;4.45;;
73841;SDS011;62184;52.006;5.924;2023-04-24T09:50:09;14.33;;;4.23;;
73841;SDS011;62184;52.006;5.924;2023-04-24T09:52:41;12.77;;;4.23;;
73841;SDS011;62184;52.006;5.924;2023-04-24T09:55:18;13.00;;;4.10;;
73841;SDS011;62184;52.006;5.924;2023-04-24T09:57:49;11.47;;;4.17;;
73841;SDS011;62184;52.006;5.924;2023-04-24T10:00:19;11.57;;;3.63;;
73841;SDS011;62184;52.006;5.924;2023-04-24T10:02:51;13.90;;;3.92;;
73841;SDS011;62184;52.006;5.924;2023-04-24T10:05:22;14.27;;;4.47;;
73841;SDS011;62184;52.006;5.924;2023-04-24T10:07:54;10.95;;;3.55;;
73841;SDS011;62184;52.006;5.924;2023-04-24T10:10:25;12.35;;;4.10;;
73841;SDS011;62184;52.006;5.924;2023-04-24T10:12:52;12.27;;;3.95;;
73841;SDS011;62184;52.006;5.924;2023-04-24T10:15:20;13.93;;;4.10;;
73841;SDS011;62184;52.006;5.924;2023-04-24T10:17:47;12.55;;;3.95;;
73841;SDS011;62184;52.006;5.924;2023-04-24T10:20:15;13.60;;;3.88;;
73841;SDS011;62184;52.006;5.924;2023-04-24T10:22:41;12.85;;;4.10;;
73841;SDS011;62184;52.006;5.924;2023-04-24T10:25:08;12.17;;;4.00;;
73841;SDS011;62184;52.006;5.924;2023-04-24T10:27:39;12.20;;;3.65;;
73841;SDS011;62184;52.006;5.924;2023-04-24T10:30:07;14.45;;;3.97;;
73841;SDS011;62184;52.006;5.924;2023-04-24T10:32:37;12.68;;;4.20;;
73841;SDS011;62184;52.006;5.924;2023-04-24T10:35:04;11.27;;;3.80;;
73841;SDS011;62184;52.006;5.924;2023-04-24T10:37:34;13.43;;;3.90;;
73841;SDS011;62184;52.006;5.924;2023-04-24T10:40:05;10.75;;;3.55;;
73841;SDS011;62184;52.006;5.924;2023-04-24T10:42:34;12.18;;;3.85;;
73841;SDS011;62184;52.006;5.924;2023-04-24T10:45:08;12.40;;;3.83;;
73841;SDS011;62184;52.006;5.924;2023-04-24T10:47:42;11.68;;;3.30;;
73841;SDS011;62184;52.006;5.924;2023-04-24T10:50:17;10.15;;;3.60;;
73841;SDS011;62184;52.006;5.924;2023-04-24T10:52:44;13.27;;;3.70;;
73841;SDS011;62184;52.006;5.924;2023-04-24T10:55:12;11.95;;;3.88;;
73841;SDS011;62184;52.006;5.924;2023-04-24T10:57:39;9.93;;;3.50;;
73841;SDS011;62184;52.006;5.924;2023-04-24T11:00:18;9.18;;;3.13;;
73841;SDS011;62184;52.006;5.924;2023-04-24T11:02:47;10.07;;;3.38;;
73841;SDS011;62184;52.006;5.924;2023-04-24T11:05:14;8.68;;;3.00;;
73841;SDS011;62184;52.006;5.924;2023-04-24T11:10:40;10.52;;;3.00;;
73841;SDS011;62184;52.006;5.924;2023-04-24T11:13:09;9.38;;;2.92;;
73841;SDS011;62184;52.006;5.924;2023-04-24T11:15:38;10.48;;;3.05;;
73841;SDS011;62184;52.006;5.924;2023-04-24T11:18:07;8.05;;;2.90;;
73841;SDS011;62184;52.006;5.924;2023-04-24T11:20:41;8.95;;;2.80;;
73841;SDS011;62184;52.006;5.924;2023-04-24T11:23:08;7.75;;;2.40;;
73841;SDS011;62184;52.006;5.924;2023-04-24T11:25:38;9.55;;;2.58;;
73841;SDS011;62184;52.006;5.924;2023-04-24T11:28:05;7.80;;;2.40;;
73841;SDS011;62184;52.006;5.924;2023-04-24T11:30:32;6.53;;;2.08;;
73841;SDS011;62184;52.006;5.924;2023-04-24T11:33:04;8.25;;;2.33;;
73841;SDS011;62184;52.006;5.924;2023-04-24T11:35:34;6.97;;;2.00;;
73841;SDS011;62184;52.006;5.924;2023-04-24T11:38:05;4.82;;;1.60;;
73841;SDS011;62184;52.006;5.924;2023-04-24T11:40:32;5.53;;;1.90;;
73841;SDS011;62184;52.006;5.924;2023-04-24T11:42:59;6.07;;;1.70;;
73841;SDS011;62184;52.006;5.924;2023-04-24T11:45:26;6.60;;;1.63;;
73841;SDS011;62184;52.006;5.924;2023-04-24T11:47:54;8.85;;;1.73;;
73841;SDS011;62184;52.006;5.924;2023-04-24T11:50:24;6.20;;;1.58;;
73841;SDS011;62184;52.006;5.924;2023-04-24T11:52:52;5.30;;;1.60;;
73841;SDS011;62184;52.006;5.924;2023-04-24T11:55:25;5.93;;;1.70;;
73841;SDS011;62184;52.006;5.924;2023-04-24T11:57:54;6.83;;;2.00;;
73841;SDS011;62184;52.006;5.924;2023-04-24T12:00:23;6.00;;;1.90;;
73841;SDS011;62184;52.006;5.924;2023-04-24T12:03:03;5.07;;;1.50;;
73841;SDS011;62184;52.006;5.924;2023-04-24T12:05:34;6.40;;;1.70;;
73841;SDS011;62184;52.006;5.924;2023-04-24T12:08:01;5.20;;;1.53;;
73841;SDS011;62184;52.006;5.924;2023-04-24T12:10:28;5.35;;;1.70;;
73841;SDS011;62184;52.006;5.924;2023-04-24T12:12:58;5.65;;;1.60;;
73841;SDS011;62184;52.006;5.924;2023-04-24T12:15:25;5.63;;;1.70;;
73841;SDS011;62184;52.006;5.924;2023-04-24T12:17:53;4.93;;;2.00;;
73841;SDS011;62184;52.006;5.924;2023-04-24T12:20:23;5.70;;;1.90;;
73841;SDS011;62184;52.006;5.924;2023-04-24T12:22:56;5.82;;;1.70;;
73841;SDS011;62184;52.006;5.924;2023-04-24T12:25:25;6.35;;;1.88;;
73841;SDS011;62184;52.006;5.924;2023-04-24T12:27:53;5.80;;;1.90;;
73841;SDS011;62184;52.006;5.924;2023-04-24T12:30:39;6.65;;;2.05;;
73841;SDS011;62184;52.006;5.924;2023-04-24T12:33:07;5.82;;;1.83;;
73841;SDS011;62184;52.006;5.924;2023-04-24T12:35:34;5.45;;;1.80;;
73841;SDS011;62184;52.006;5.924;2023-04-24T12:38:07;5.57;;;1.70;;
73841;SDS011;62184;52.006;5.924;2023-04-24T12:40:35;5.50;;;1.80;;
73841;SDS011;62184;52.006;5.924;2023-04-24T12:43:02;4.88;;;1.52;;
73841;SDS011;62184;52.006;5.924;2023-04-24T12:45:39;5.72;;;1.42;;
73841;SDS011;62184;52.006;5.924;2023-04-24T12:48:05;5.40;;;1.52;;
73841;SDS011;62184;52.006;5.924;2023-04-24T12:50:31;4.90;;;1.40;;
73841;SDS011;62184;52.006;5.924;2023-04-24T12:52:58;5.07;;;1.50;;
73841;SDS011;62184;52.006;5.924;2023-04-24T12:55:28;5.05;;;1.42;;
73841;SDS011;62184;52.006;5.924;2023-04-24T12:57:54;4.05;;;1.30;;
73841;SDS011;62184;52.006;5.924;2023-04-24T13:00:20;6.57;;;1.60;;
73841;SDS011;62184;52.006;5.924;2023-04-24T13:02:47;5.63;;;1.45;;
73841;SDS011;62184;52.006;5.924;2023-04-24T13:05:14;6.07;;;1.63;;
73841;SDS011;62184;52.006;5.924;2023-04-24T13:07:40;4.50;;;1.50;;
73841;SDS011;62184;52.006;5.924;2023-04-24T13:10:07;5.38;;;1.40;;
73841;SDS011;62184;52.006;5.924;2023-04-24T13:12:37;4.47;;;1.40;;
73841;SDS011;62184;52.006;5.924;2023-04-24T13:15:05;5.67;;;1.60;;
73841;SDS011;62184;52.006;5.924;2023-04-24T13:17:32;6.17;;;1.60;;
73841;SDS011;62184;52.006;5.924;2023-04-24T13:19:59;5.90;;;1.60;;
73841;SDS011;62184;52.006;5.924;2023-04-24T13:22:25;6.57;;;1.60;;
73841;SDS011;62184;52.006;5.924;2023-04-24T13:24:52;5.67;;;1.80;;
73841;SDS011;62184;52.006;5.924;2023-04-24T13:27:18;5.10;;;1.50;;
73841;SDS011;62184;52.006;5.924;2023-04-24T13:29:47;5.32;;;1.50;;
73841;SDS011;62184;52.006;5.924;2023-04-24T13:32:14;6.25;;;1.90;;
73841;SDS011;62184;52.006;5.924;2023-04-24T13:34:40;7.32;;;1.70;;
73841;SDS011;62184;52.006;5.924;2023-04-24T13:37:07;7.45;;;1.80;;
73841;SDS011;62184;52.006;5.924;2023-04-24T13:39:33;6.13;;;1.95;;
73841;SDS011;62184;52.006;5.924;2023-04-24T13:42:00;7.93;;;2.00;;
73841;SDS011;62184;52.006;5.924;2023-04-24T13:44:26;7.22;;;2.17;;
73841;SDS011;62184;52.006;5.924;2023-04-24T13:46:57;6.32;;;1.90;;
73841;SDS011;62184;52.006;5.924;2023-04-24T13:49:24;7.73;;;2.10;;
73841;SDS011;62184;52.006;5.924;2023-04-24T13:51:52;9.57;;;2.10;;
73841;SDS011;62184;52.006;5.924;2023-04-24T13:54:19;9.57;;;2.15;;
73841;SDS011;62184;52.006;5.924;2023-04-24T13:56:46;8.45;;;2.30;;
73841;SDS011;62184;52.006;5.924;2023-04-24T13:59:12;8.73;;;2.58;;
73841;SDS011;62184;52.006;5.924;2023-04-24T14:01:39;9.00;;;2.60;;
73841;SDS011;62184;52.006;5.924;2023-04-24T14:04:08;10.20;;;2.83;;
73841;SDS011;62184;52.006;5.924;2023-04-24T14:06:34;10.35;;;2.90;;
73841;SDS011;62184;52.006;5.924;2023-04-24T14:09:01;9.23;;;2.80;;
73841;SDS011;62184;52.006;5.924;2023-04-24T14:11:27;8.70;;;2.70;;
73841;SDS011;62184;52.006;5.924;2023-04-24T14:13:54;11.23;;;2.47;;
73841;SDS011;62184;52.006;5.924;2023-04-24T14:16:21;9.80;;;2.80;;
73841;SDS011;62184;52.006;5.924;2023-04-24T14:18:48;9.05;;;2.72;;
73841;SDS011;62184;52.006;5.924;2023-04-24T14:21:18;8.67;;;2.60;;
73841;SDS011;62184;52.006;5.924;2023-04-24T14:23:44;9.00;;;2.75;;
73841;SDS011;62184;52.006;5.924;2023-04-24T14:26:11;9.60;;;2.55;;
73841;SDS011;62184;52.006;5.924;2023-04-24T14:28:37;12.27;;;2.90;;
73841;SDS011;62184;52.006;5.924;2023-04-24T14:31:04;8.20;;;2.80;;
73841;SDS011;62184;52.006;5.924;2023-04-24T14:33:30;10.30;;;2.72;;
73841;SDS011;62184;52.006;5.924;2023-04-24T14:35:56;9.93;;;3.03;;
73841;SDS011;62184;52.006;5.924;2023-04-24T14:38:25;9.35;;;3.17;;